Time;durP1;ratioP1;P1;durP2;ratioP2;P2;SDS_P1;SDS_P2;PMS_P1;PMS_P2;Temp;Humidity;BMP_temperature;BMP_pressure;BME280_temperature;BME280_humidity;BME280_pressure;Samples;Min_cycle;Max_cycle;Signal;HPM_P1;HPM_P2
2021/12/24 00:01:23;;;;;;;45.40;26.40;;;;;;;3.33;100.00;98161.69;5070820;28;20673;-87
2021/12/24 00:03:57;;;;;;;46.90;28.53;;;;;;;3.31;100.00;98161.78;5052868;28;20656;-87
2021/12/24 00:06:25;;;;;;;42.43;26.60;;;;;;;3.35;100.00;98165.06;5067880;28;20204;-85
2021/12/24 00:08:55;;;;;;;49.77;29.70;;;;;;;3.43;100.00;98145.44;5070532;28;20194;-87
2021/12/24 00:11:25;;;;;;;48.57;27.27;;;;;;;3.44;100.00;98144.50;5069924;28;20212;-87
2021/12/24 00:13:54;;;;;;;45.47;27.03;;;;;;;3.54;100.00;98142.28;5067166;28;20235;-85
2021/12/24 00:16:23;;;;;;;44.60;26.90;;;;;;;3.44;100.00;98144.50;5064385;28;20200;-87
2021/12/24 00:18:57;;;;;;;49.93;28.73;;;;;;;3.51;100.00;98152.91;5068325;28;20199;-87
2021/12/24 00:35:32;;;;;;;45.37;25.93;;;;;;;3.57;100.00;98133.41;5077499;28;20188;-87
2021/12/24 00:38:07;;;;;;;43.13;25.13;;;;;;;3.62;100.00;98139.25;5072720;28;20203;-87
2021/12/24 00:40:40;;;;;;;42.43;25.57;;;;;;;3.60;100.00;98130.66;5071425;28;20275;-87
2021/12/24 00:43:10;;;;;;;43.90;27.27;;;;;;;3.67;100.00;98132.88;5013047;28;20226;-88
2021/12/24 00:45:42;;;;;;;44.57;25.53;;;;;;;3.77;100.00;98143.69;5009797;28;20191;-87
2021/12/24 00:48:15;;;;;;;45.67;27.03;;;;;;;3.86;100.00;98148.44;5015289;28;20264;-87
2021/12/24 00:50:53;;;;;;;46.43;26.57;;;;;;;3.95;100.00;98137.44;4934566;29;20368;-87
2021/12/24 00:56:14;;;;;;;45.77;27.43;;;;;;;4.59;100.00;98144.41;4937608;29;20201;-87
2021/12/24 00:58:44;;;;;;;44.07;26.17;;;;;;;4.79;100.00;98134.56;4933984;29;20629;-87
2021/12/24 01:01:16;;;;;;;43.70;26.63;;;;;;;4.79;100.00;98139.81;4933123;29;20711;-86
2021/12/24 01:03:46;;;;;;;49.00;25.90;;;;;;;4.86;100.00;98144.63;4930191;29;20288;-86
2021/12/24 01:06:14;;;;;;;46.47;27.53;;;;;;;4.88;100.00;98152.41;4925461;29;20228;-87
2021/12/24 01:08:45;;;;;;;46.77;27.20;;;;;;;4.80;100.00;98147.59;4935424;29;20280;-86
2021/12/24 01:11:16;;;;;;;50.67;28.07;;;;;;;4.91;100.00;98146.13;4933725;29;20252;-87
2021/12/24 01:13:46;;;;;;;47.43;26.20;;;;;;;4.97;100.00;98146.63;4935168;29;20201;-87
2021/12/24 01:16:22;;;;;;;45.93;25.87;;;;;;;5.01;100.00;98142.88;5000822;28;20282;-87
2021/12/24 01:19:00;;;;;;;45.93;27.37;;;;;;;4.93;100.00;98129.41;5007000;28;20198;-88
2021/12/24 01:21:47;;;;;;;45.63;25.73;;;;;;;5.00;100.00;98120.22;4967161;28;20196;-86
2021/12/24 01:24:21;;;;;;;41.03;24.13;;;;;;;5.34;100.00;98129.59;4976023;28;20196;-88
2021/12/24 01:26:59;;;;;;;39.20;23.63;;;;;;;5.60;100.00;98122.78;4970806;28;20199;-88
2021/12/24 01:38:10;;;;;;;34.73;21.70;;;;;;;6.46;100.00;98104.28;4973470;28;20207;-88
2021/12/24 01:40:53;;;;;;;39.27;21.27;;;;;;;6.66;100.00;98108.25;5063446;28;20216;-86
2021/12/24 01:43:23;;;;;;;35.23;23.57;;;;;;;6.85;100.00;98099.09;5076497;28;20218;-86
2021/12/24 01:45:56;;;;;;;31.97;22.30;;;;;;;6.88;100.00;98101.53;5063282;28;20253;-89
2021/12/24 01:48:25;;;;;;;31.83;20.03;;;;;;;6.88;100.00;98091.00;5076615;28;20184;-88
2021/12/24 01:50:55;;;;;;;29.73;19.93;;;;;;;6.84;100.00;98086.00;5068773;28;20215;-87
2021/12/24 01:53:29;;;;;;;24.10;18.33;;;;;;;7.00;100.00;98089.31;5068513;28;20222;-88
2021/12/24 01:56:02;;;;;;;25.90;18.73;;;;;;;6.92;100.00;98085.50;5059514;28;20198;-89
2021/12/24 01:58:31;;;;;;;26.23;17.87;;;;;;;7.07;100.00;98080.09;5067178;28;20279;-89
2021/12/24 02:00:59;;;;;;;23.20;15.87;;;;;;;7.11;100.00;98080.72;5062755;28;20667;-89
2021/12/24 02:03:30;;;;;;;24.63;16.87;;;;;;;7.11;100.00;98078.91;5067449;28;20207;-89
2021/12/24 02:06:07;;;;;;;23.63;17.43;;;;;;;7.17;100.00;98078.50;5073660;28;20197;-88
2021/12/24 02:08:37;;;;;;;25.07;16.17;;;;;;;7.17;100.00;98061.88;5026721;28;20201;-86
2021/12/24 02:11:12;;;;;;;22.40;15.37;;;;;;;7.21;100.00;98068.59;5035543;28;20190;-86
2021/12/24 02:13:42;;;;;;;25.73;15.73;;;;;;;7.19;100.00;98065.25;5027007;28;20224;-89
2021/12/24 02:16:15;;;;;;;23.23;15.03;;;;;;;7.28;100.00;98056.72;5025237;28;20209;-88
2021/12/24 02:29:49;;;;;;;21.10;14.03;;;;;;;7.35;100.00;98025.53;5011804;28;20206;-87
2021/12/24 02:32:17;;;;;;;20.43;14.33;;;;;;;7.49;100.00;98035.09;5007266;28;20272;-87
2021/12/24 02:34:46;;;;;;;20.23;15.03;;;;;;;7.35;100.00;98036.06;5011366;28;20217;-88
2021/12/24 02:37:19;;;;;;;23.60;16.17;;;;;;;7.36;100.00;98033.34;5055274;28;20188;-87
2021/12/24 02:39:47;;;;;;;22.43;14.40;;;;;;;7.30;100.00;98030.28;5071735;28;20199;-87
2021/12/24 02:42:20;;;;;;;21.50;13.70;;;;;;;7.40;100.00;98026.88;5071383;28;20198;-86
2021/12/24 02:44:52;;;;;;;22.50;14.07;;;;;;;7.28;100.00;98026.91;5074302;28;20193;-87
2021/12/24 02:47:41;;;;;;;18.27;14.03;;;;;;;7.27;100.00;98022.59;5068462;28;20189;-87
2021/12/24 02:55:59;;;;;;;22.00;13.83;;;;;;;7.41;100.00;98018.03;5067172;28;20202;-87
2021/12/24 02:58:28;;;;;;;20.60;14.10;;;;;;;7.41;100.00;98015.41;5072698;28;20204;-88
2021/12/24 03:00:57;;;;;;;19.87;12.90;;;;;;;7.39;100.00;98011.19;5069940;28;20196;-87
2021/12/24 03:03:26;;;;;;;21.43;14.20;;;;;;;7.37;100.00;98021.00;5066402;28;20196;-87
2021/12/24 03:05:54;;;;;;;20.13;13.07;;;;;;;7.40;100.00;98004.97;5069725;28;20193;-88
2021/12/24 03:08:24;;;;;;;21.43;15.00;;;;;;;7.42;100.00;98010.97;5019388;28;20223;-88
2021/12/24 03:10:54;;;;;;;18.73;13.83;;;;;;;7.61;100.00;98016.63;5067988;28;20200;-87
2021/12/24 03:13:24;;;;;;;19.37;13.87;;;;;;;7.44;100.00;98025.75;5071510;28;20216;-88
2021/12/24 03:15:56;;;;;;;19.77;12.77;;;;;;;7.44;100.00;98017.84;5071817;28;20192;-87
2021/12/24 03:18:28;;;;;;;20.77;13.87;;;;;;;7.44;100.00;98019.63;5066940;28;20200;-88
2021/12/24 03:21:04;;;;;;;19.80;13.53;;;;;;;7.47;100.00;98011.50;5071266;28;20192;-88
2021/12/24 03:23:40;;;;;;;21.47;13.70;;;;;;;7.46;100.00;98013.31;5067890;28;20199;-86
2021/12/24 03:26:12;;;;;;;21.47;13.07;;;;;;;7.56;100.00;98013.50;5069280;28;20192;-87
2021/12/24 03:28:43;;;;;;;19.87;13.83;;;;;;;7.55;100.00;98003.06;5066929;28;20200;-88
2021/12/24 03:31:11;;;;;;;18.27;13.63;;;;;;;7.56;100.00;98013.50;5064393;28;20220;-87
2021/12/24 03:33:39;;;;;;;21.23;13.30;;;;;;;7.63;100.00;98012.13;5049108;28;20213;-87
2021/12/24 03:36:09;;;;;;;18.33;11.97;;;;;;;7.68;100.00;98003.88;5009981;28;20209;-87
2021/12/24 03:38:38;;;;;;;16.53;11.97;;;;;;;7.69;100.00;98010.84;5054142;28;20197;-86
2021/12/24 03:41:07;;;;;;;21.10;13.00;;;;;;;7.70;100.00;97994.91;5046094;28;20204;-87
2021/12/24 03:43:35;;;;;;;15.53;11.63;;;;;;;7.75;100.00;98005.13;5041554;28;20200;-87
2021/12/24 03:46:07;;;;;;;16.90;12.00;;;;;;;7.76;100.00;98001.56;5048350;28;20215;-87
2021/12/24 03:48:47;;;;;;;18.20;12.73;;;;;;;7.56;100.00;97997.69;5051354;28;20371;-88
2021/12/24 03:56:49;;;;;;;18.50;13.23;;;;;;;7.64;100.00;97998.00;5053550;28;20189;-87
2021/12/24 03:59:17;;;;;;;16.30;10.63;;;;;;;7.74;100.00;97988.50;5051765;28;20208;-86
2021/12/24 04:01:47;;;;;;;14.87;10.37;;;;;;;7.77;100.00;97991.84;5047795;28;20215;-87
2021/12/24 04:04:16;;;;;;;18.27;10.73;;;;;;;7.73;100.00;97993.88;5016575;28;20200;-87
2021/12/24 04:06:45;;;;;;;15.47;11.03;;;;;;;7.67;100.00;97984.59;5053644;28;20666;-86
2021/12/24 04:09:15;;;;;;;14.80;10.50;;;;;;;7.72;100.00;97989.53;5051630;28;20201;-87
2021/12/24 04:11:44;;;;;;;16.80;10.30;;;;;;;7.75;100.00;97990.16;5046354;28;20200;-87
2021/12/24 04:14:12;;;;;;;12.33;9.50;;;;;;;7.77;100.00;97995.31;5051372;28;20713;-86
2021/12/24 04:16:41;;;;;;;14.17;9.30;;;;;;;7.84;100.00;97990.47;5048927;28;20415;-87
2021/12/24 04:19:25;;;;;;;14.27;10.43;;;;;;;7.75;100.00;97979.63;5045435;28;20242;-86
2021/12/24 04:27:29;;;;;;;15.03;9.77;;;;;;;7.88;100.00;97976.94;5054202;28;20189;-87
2021/12/24 04:30:05;;;;;;;13.27;9.73;;;;;;;7.93;100.00;97979.25;5047556;28;20201;-87
2021/12/24 04:32:48;;;;;;;12.80;8.73;;;;;;;7.87;100.00;97970.00;5047013;28;20240;-87
2021/12/24 04:35:31;;;;;;;12.60;8.10;;;;;;;7.95;100.00;97978.19;5047948;28;20196;-86
2021/12/24 04:51:59;;;;;;;11.37;7.07;;;;;;;8.09;100.00;97976.34;5053620;28;20208;-87
2021/12/24 05:02:58;;;;;;;9.43;6.73;;;;;;;7.92;100.00;97967.03;5052684;28;20189;-88
2021/12/24 05:05:37;;;;;;;10.40;7.07;;;;;;;7.87;100.00;97967.34;5044769;28;20272;-87
2021/12/24 05:10:57;;;;;;;8.60;6.13;;;;;;;7.98;100.00;97967.41;5028885;28;20205;-87
2021/12/24 05:13:27;;;;;;;8.00;6.07;;;;;;;7.99;100.00;97971.72;5051618;28;20216;-87
2021/12/24 05:16:05;;;;;;;8.43;6.07;;;;;;;8.00;100.00;97956.75;5056292;28;20197;-88
2021/12/24 05:19:00;;;;;;;8.80;6.17;;;;;;;7.93;100.00;97953.75;5019798;28;20205;-88
2021/12/24 05:21:35;;;;;;;7.83;5.83;;;;;;;7.95;100.00;97953.63;5054377;28;20209;-88
2021/12/24 05:24:06;;;;;;;9.60;6.00;;;;;;;8.08;100.00;97958.84;5050239;28;20207;-87
2021/12/24 05:26:37;;;;;;;7.53;5.80;;;;;;;7.99;100.00;97966.47;5051746;28;20192;-87
2021/12/24 05:29:07;;;;;;;8.00;5.70;;;;;;;7.94;100.00;97963.31;5056362;28;20197;-89
2021/12/24 05:31:39;;;;;;;9.53;5.97;;;;;;;7.90;100.00;97950.47;5053326;28;20231;-87
2021/12/24 05:34:07;;;;;;;7.63;5.37;;;;;;;7.92;100.00;97957.34;5041395;28;20263;-88
2021/12/24 05:36:36;;;;;;;7.40;5.53;;;;;;;7.86;100.00;97954.28;5049248;28;20205;-86
2021/12/24 05:39:05;;;;;;;7.83;5.20;;;;;;;7.96;100.00;97950.03;5050199;28;20204;-88
2021/12/24 05:41:34;;;;;;;8.97;5.33;;;;;;;7.87;100.00;97956.81;5055962;28;20197;-88
2021/12/24 05:44:02;;;;;;;7.60;5.30;;;;;;;7.92;100.00;97951.22;5050109;28;20321;-88
2021/12/24 05:46:32;;;;;;;6.83;5.13;;;;;;;7.98;100.00;97948.13;5045851;28;20235;-87
2021/12/24 05:49:00;;;;;;;8.40;5.07;;;;;;;8.02;100.00;97963.63;5054304;28;20189;-88
2021/12/24 05:51:33;;;;;;;5.67;4.00;;;;;;;8.00;100.00;97948.84;5049186;28;20197;-87
2021/12/24 05:54:01;;;;;;;6.40;4.27;;;;;;;7.93;100.00;97937.94;5055798;28;20223;-88
2021/12/24 05:56:30;;;;;;;5.37;4.87;;;;;;;7.89;100.00;97943.50;5050510;28;20251;-88
2021/12/24 05:58:58;;;;;;;5.27;4.63;;;;;;;7.89;100.00;97946.16;5052618;28;20209;-89
2021/12/24 06:01:28;;;;;;;6.47;4.57;;;;;;;7.87;100.00;97930.44;5050485;28;20190;-86
2021/12/24 06:03:58;;;;;;;7.77;4.93;;;;;;;7.95;100.00;97941.28;5051383;28;20197;-87
2021/12/24 06:06:27;;;;;;;8.37;4.20;;;;;;;8.06;100.00;97944.94;5055393;28;20192;-88
2021/12/24 06:08:55;;;;;;;7.10;4.80;;;;;;;8.01;100.00;97943.47;5052270;28;20279;-87
2021/12/24 06:11:24;;;;;;;7.93;4.40;;;;;;;7.93;100.00;97940.56;5052570;28;20205;-88
2021/12/24 06:13:55;;;;;;;7.40;4.80;;;;;;;7.89;100.00;97940.88;5053582;28;20239;-87
2021/12/24 06:16:24;;;;;;;6.30;4.70;;;;;;;7.91;100.00;97957.41;5052089;28;20196;-88
2021/12/24 06:18:54;;;;;;;7.40;4.63;;;;;;;8.04;100.00;97948.53;5048523;28;20280;-87
2021/12/24 06:21:24;;;;;;;7.73;4.30;;;;;;;7.92;100.00;97957.34;5051844;28;20197;-88
2021/12/24 06:23:52;;;;;;;5.87;4.43;;;;;;;8.03;100.00;97964.47;5054848;28;20197;-88
2021/12/24 06:26:20;;;;;;;8.43;4.17;;;;;;;8.05;100.00;97965.19;5046362;28;20205;-88
2021/12/24 06:28:48;;;;;;;7.90;4.23;;;;;;;8.04;100.00;97963.50;5050385;28;20223;-88
2021/12/24 06:31:17;;;;;;;6.93;4.60;;;;;;;8.06;100.00;97968.66;5048021;28;20225;-88
2021/12/24 06:33:47;;;;;;;5.83;4.47;;;;;;;8.10;100.00;97980.66;5045656;28;20231;-89
2021/12/24 06:36:15;;;;;;;5.83;3.93;;;;;;;8.11;100.00;97974.47;5051761;28;20193;-87
2021/12/24 06:38:45;;;;;;;6.17;3.83;;;;;;;8.16;100.00;97969.66;5017104;28;20197;-87
2021/12/24 06:41:13;;;;;;;5.40;4.07;;;;;;;8.11;100.00;97963.91;5054671;28;20227;-86
2021/12/24 06:43:41;;;;;;;6.03;3.73;;;;;;;8.04;100.00;97951.16;5045434;28;20205;-88
2021/12/24 06:46:12;;;;;;;7.07;4.17;;;;;;;8.15;100.00;97962.72;5047620;28;20200;-87
2021/12/24 06:48:41;;;;;;;6.33;4.07;;;;;;;8.07;100.00;97965.06;5048316;28;20193;-87
2021/12/24 06:51:10;;;;;;;5.90;3.63;;;;;;;8.10;100.00;97965.66;5050178;28;20193;-87
2021/12/24 06:53:38;;;;;;;7.53;3.90;;;;;;;8.11;100.00;97972.66;5048236;28;20267;-87
2021/12/24 06:56:08;;;;;;;7.97;4.37;;;;;;;7.99;100.00;97978.81;5047762;28;20217;-85
2021/12/24 06:58:36;;;;;;;6.83;3.97;;;;;;;8.03;100.00;97973.22;5051111;28;20262;-86
2021/12/24 07:01:05;;;;;;;5.07;3.67;;;;;;;8.09;100.00;97974.53;5054199;28;20200;-88
2021/12/24 07:03:34;;;;;;;9.57;4.00;;;;;;;8.28;100.00;97976.66;5047242;28;20193;-87
2021/12/24 07:06:02;;;;;;;8.30;4.10;;;;;;;8.14;100.00;97974.22;5045242;28;20648;-88
2021/12/24 07:08:31;;;;;;;6.37;3.90;;;;;;;8.21;100.00;97972.81;5051958;28;20644;-87
2021/12/24 07:11:00;;;;;;;5.60;4.40;;;;;;;8.16;100.00;97977.59;5051164;28;20651;-87
2021/12/24 07:13:30;;;;;;;5.13;4.00;;;;;;;8.20;100.00;97977.25;5050586;28;20189;-88
2021/12/24 07:15:58;;;;;;;8.60;4.10;;;;;;;8.17;100.00;97968.72;5046750;28;20219;-88
2021/12/24 07:18:28;;;;;;;5.57;3.80;;;;;;;8.17;100.00;97980.09;5048580;28;20205;-86
2021/12/24 07:20:57;;;;;;;4.97;3.57;;;;;;;8.14;100.00;97984.78;5049824;28;20674;-88
2021/12/24 07:23:25;;;;;;;6.77;3.80;;;;;;;8.21;100.00;97988.66;5047058;28;20283;-87
2021/12/24 07:25:54;;;;;;;6.33;3.60;;;;;;;8.11;100.00;97988.47;5051035;28;20197;-87
2021/12/24 07:28:22;;;;;;;6.83;4.00;;;;;;;8.18;100.00;97994.13;5050950;28;20201;-86
2021/12/24 07:30:53;;;;;;;5.67;3.70;;;;;;;8.12;100.00;97992.81;5053400;28;20216;-88
2021/12/24 07:33:21;;;;;;;6.13;3.63;;;;;;;8.15;100.00;97999.63;5072800;28;20354;-88
2021/12/24 07:35:49;;;;;;;7.83;4.17;;;;;;;8.21;100.00;98001.84;5067411;28;20220;-87
2021/12/24 07:38:17;;;;;;;8.40;4.00;;;;;;;8.25;100.00;98009.41;5073985;28;20204;-88
2021/12/24 07:40:49;;;;;;;8.43;4.10;;;;;;;8.17;100.00;98013.53;5068898;28;20231;-88
2021/12/24 07:43:18;;;;;;;5.77;4.23;;;;;;;8.09;100.00;98013.25;5068303;28;20191;-87
2021/12/24 07:45:48;;;;;;;7.53;3.70;;;;;;;8.23;100.00;98007.84;5068982;28;20204;-88
2021/12/24 07:48:27;;;;;;;5.90;3.50;;;;;;;8.14;100.00;98005.88;5066750;28;20243;-88
2021/12/24 07:53:48;;;;;;;5.93;3.57;;;;;;;8.21;100.00;98009.75;5073493;28;20192;-87
2021/12/24 07:56:16;;;;;;;15.10;8.17;;;;;;;8.20;100.00;98010.69;5070726;28;20216;-88
2021/12/24 07:58:45;;;;;;;15.67;7.97;;;;;;;8.25;100.00;98003.28;5044253;28;20189;-87
2021/12/24 08:01:13;;;;;;;100.83;51.43;;;;;;;8.13;100.00;98014.72;5047876;28;20189;-87
2021/12/24 08:03:46;;;;;;;129.73;62.90;;;;;;;8.14;100.00;98019.91;4994869;28;20236;-86
2021/12/24 08:06:14;;;;;;;57.33;29.40;;;;;;;8.13;100.00;98006.81;5047626;28;20212;-87
2021/12/24 08:08:42;;;;;;;40.43;22.47;;;;;;;8.19;100.00;98009.84;5042590;28;20341;-86
2021/12/24 08:11:10;;;;;;;15.33;8.27;;;;;;;8.25;100.00;98006.75;5001827;28;20212;-87
2021/12/24 08:13:40;;;;;;;41.77;21.47;;;;;;;8.25;100.00;98016.47;5045607;28;20610;-87
2021/12/24 08:16:08;;;;;;;9.00;4.43;;;;;;;8.26;100.00;98010.25;5047438;28;20271;-88
2021/12/24 08:18:37;;;;;;;45.37;33.83;;;;;;;8.24;100.00;98009.53;5066598;28;20245;-86
2021/12/24 08:21:08;;;;;;;12.53;8.87;;;;;;;8.17;100.00;98000.34;5073195;28;20204;-87
2021/12/24 08:23:37;;;;;;;8.40;3.83;;;;;;;8.22;100.00;98007.00;5073348;28;20204;-86
2021/12/24 08:26:07;;;;;;;11.00;7.90;;;;;;;8.19;100.00;98003.72;5063256;28;20215;-87
2021/12/24 08:28:36;;;;;;;10.30;7.47;;;;;;;8.22;100.00;98014.91;5070903;28;20267;-87
2021/12/24 08:31:04;;;;;;;6.97;3.40;;;;;;;8.27;100.00;98004.00;5066869;28;20220;-86
2021/12/24 08:33:34;;;;;;;6.93;3.47;;;;;;;8.37;100.00;98012.13;5045935;28;20217;-87
2021/12/24 08:36:03;;;;;;;7.70;3.90;;;;;;;8.35;100.00;98011.41;5051554;28;20244;-86
2021/12/24 08:38:33;;;;;;;7.30;4.03;;;;;;;8.29;100.00;97997.66;5047120;28;20205;-87
2021/12/24 08:41:02;;;;;;;7.30;4.17;;;;;;;8.27;100.00;97998.72;5039025;28;20243;-87
2021/12/24 08:43:31;;;;;;;7.43;3.87;;;;;;;8.41;100.00;97995.97;5052217;28;20205;-86
2021/12/24 08:45:59;;;;;;;8.73;4.20;;;;;;;8.34;100.00;97989.41;5049246;28;20661;-85
2021/12/24 08:48:27;;;;;;;6.47;3.50;;;;;;;8.37;100.00;97983.09;5049656;28;20201;-86
2021/12/24 08:50:57;;;;;;;8.33;4.30;;;;;;;8.34;100.00;97978.88;5054520;28;20267;-87
2021/12/24 08:53:26;;;;;;;7.07;3.40;;;;;;;8.38;100.00;97980.34;5050262;28;20189;-86
2021/12/24 08:55:59;;;;;;;7.40;3.33;;;;;;;8.37;100.00;97991.03;5059403;28;20212;-87
2021/12/24 08:58:27;;;;;;;6.37;3.50;;;;;;;8.22;100.00;97987.69;5049492;28;20234;-88
2021/12/24 09:00:55;;;;;;;8.37;3.90;;;;;;;8.18;100.00;97994.13;4994747;28;20198;-86
2021/12/24 09:03:24;;;;;;;14.03;12.03;;;;;;;8.21;100.00;97992.13;5049201;28;20189;-88
2021/12/24 09:05:54;;;;;;;8.23;6.07;;;;;;;8.19;100.00;97987.91;5047743;28;20192;-87
2021/12/24 09:08:24;;;;;;;8.37;4.80;;;;;;;8.18;100.00;97979.16;5051498;28;20217;-86
2021/12/24 09:10:52;;;;;;;7.40;4.30;;;;;;;8.21;100.00;97973.66;5054941;28;20212;-87
2021/12/24 09:13:23;;;;;;;8.90;4.10;;;;;;;8.24;100.00;97977.88;5050308;28;20209;-87
2021/12/24 09:15:53;;;;;;;7.63;3.70;;;;;;;8.16;100.00;97969.66;5057242;28;20220;-86
2021/12/24 09:18:23;;;;;;;6.00;3.57;;;;;;;8.26;100.00;97955.69;5050009;28;20193;-87
2021/12/24 09:20:53;;;;;;;6.90;3.30;;;;;;;8.25;100.00;97953.16;5048470;28;20193;-87
2021/12/24 09:23:23;;;;;;;7.37;3.93;;;;;;;8.25;100.00;97958.44;5053779;28;20201;-87
2021/12/24 09:26:11;;;;;;;6.57;3.63;;;;;;;8.23;100.00;97953.28;5059205;28;20247;-86
2021/12/24 09:28:41;;;;;;;9.37;3.90;;;;;;;8.27;100.00;97948.63;5053194;28;20191;-87
2021/12/24 09:31:09;;;;;;;7.50;3.73;;;;;;;8.23;100.00;97957.72;5063828;28;20240;-87
2021/12/24 09:33:37;;;;;;;6.33;3.90;;;;;;;8.17;100.00;97948.44;5073504;28;20280;-86
2021/12/24 09:36:06;;;;;;;8.20;6.63;;;;;;;8.16;100.00;97956.47;5078825;28;20236;-87
2021/12/24 09:38:35;;;;;;;8.80;6.00;;;;;;;8.15;100.00;97953.00;5011122;28;20214;-87
2021/12/24 09:41:03;;;;;;;9.20;4.67;;;;;;;8.22;100.00;97953.41;5016966;28;20209;-87
2021/12/24 09:43:33;;;;;;;8.63;4.00;;;;;;;8.26;100.00;97954.84;5006253;28;20210;-87
2021/12/24 09:46:03;;;;;;;10.30;3.77;;;;;;;8.28;100.00;97952.94;5006235;28;20194;-87
2021/12/24 09:48:32;;;;;;;6.23;4.20;;;;;;;8.20;100.00;97953.53;5015280;28;20321;-87
2021/12/24 09:51:01;;;;;;;8.33;3.97;;;;;;;8.24;100.00;97956.75;5002690;28;20246;-86
2021/12/24 09:53:29;;;;;;;5.97;3.40;;;;;;;8.38;100.00;97953.97;5010639;28;20221;-86
2021/12/24 09:55:57;;;;;;;6.20;3.87;;;;;;;8.30;100.00;97948.41;5018939;28;20222;-87
2021/12/24 09:58:28;;;;;;;7.73;4.13;;;;;;;8.34;100.00;97949.84;5078735;28;20197;-87
2021/12/24 10:00:57;;;;;;;8.50;3.90;;;;;;;8.40;100.00;97945.97;5074269;28;20185;-86
2021/12/24 10:03:31;;;;;;;12.23;4.80;;;;;;;8.43;100.00;97933.38;5014851;28;20249;-86
2021/12/24 10:06:00;;;;;;;8.70;4.57;;;;;;;8.54;100.00;97933.41;5012542;28;20194;-86
2021/12/24 10:08:31;;;;;;;7.77;3.90;;;;;;;8.48;100.00;97943.56;5008411;28;20198;-87
2021/12/24 10:11:05;;;;;;;10.67;5.40;;;;;;;8.49;100.00;97950.53;5010112;28;20205;-87
2021/12/24 10:13:36;;;;;;;9.00;5.00;;;;;;;8.55;100.00;97936.88;5009392;28;20318;-87
2021/12/24 10:16:07;;;;;;;13.00;8.77;;;;;;;8.57;100.00;97946.34;5007679;28;20218;-88
2021/12/24 10:18:43;;;;;;;13.40;10.77;;;;;;;8.67;100.00;97935.09;5011491;28;20214;-87
2021/12/24 10:21:20;;;;;;;11.17;4.10;;;;;;;8.57;100.00;97948.16;4992986;28;20192;-87
2021/12/24 10:23:54;;;;;;;9.43;4.57;;;;;;;8.55;100.00;97945.63;5081849;28;20192;-88
2021/12/24 10:26:31;;;;;;;7.53;3.73;;;;;;;8.60;100.00;97946.16;5078325;28;20195;-86
2021/12/24 10:29:02;;;;;;;7.83;3.90;;;;;;;8.56;100.00;97935.91;4980668;28;20215;-87
2021/12/24 10:31:35;;;;;;;7.17;3.70;;;;;;;8.54;100.00;97940.47;4965330;28;20238;-86
2021/12/24 10:34:20;;;;;;;8.93;3.57;;;;;;;8.58;100.00;97937.47;4973802;28;20204;-87
2021/12/24 10:37:22;;;;;;;10.17;3.90;;;;;;;8.58;100.00;97936.63;4973874;28;20227;-86
2021/12/24 10:39:53;;;;;;;11.67;3.80;;;;;;;8.59;100.00;97941.81;4961871;28;20206;-86
2021/12/24 10:42:27;;;;;;;9.17;3.67;;;;;;;8.62;100.00;97930.19;4968463;28;20204;-87
2021/12/24 10:44:58;;;;;;;6.70;3.63;;;;;;;8.60;100.00;97937.38;4917149;29;20242;-89
2021/12/24 10:47:28;;;;;;;10.07;3.40;;;;;;;8.65;100.00;97919.38;4958801;28;20242;-87
2021/12/24 10:55:37;;;;;;;8.47;3.60;;;;;;;8.86;100.00;97915.09;4994242;28;20234;-86
2021/12/24 10:58:13;;;;;;;10.47;3.50;;;;;;;8.75;100.00;97907.16;4986143;28;20446;-85
2021/12/24 11:00:48;;;;;;;11.53;3.73;;;;;;;8.83;100.00;97891.59;4952423;29;20235;-86
2021/12/24 11:03:21;;;;;;;15.37;8.40;;;;;;;8.92;100.00;97905.03;4992323;28;20257;-86
2021/12/24 11:05:54;;;;;;;9.40;3.60;;;;;;;8.87;100.00;97908.00;5021244;28;20205;-86
2021/12/24 11:08:24;;;;;;;9.50;3.60;;;;;;;8.93;100.00;97906.72;5029831;28;20225;-86
2021/12/24 11:10:55;;;;;;;8.33;3.67;;;;;;;8.83;100.00;97901.31;5028726;28;20196;-86
2021/12/24 11:13:38;;;;;;;8.67;3.63;;;;;;;8.88;100.00;97907.09;5035495;28;20197;-87
2021/12/24 11:16:07;;;;;;;7.17;3.27;;;;;;;8.94;100.00;97908.38;5029415;28;20201;-86
2021/12/24 11:18:39;;;;;;;9.67;3.40;;;;;;;8.81;100.00;97905.88;5046071;28;20188;-86
2021/12/24 11:21:10;;;;;;;9.40;4.73;;;;;;;8.79;100.00;97905.16;5070769;28;20200;-87
2021/12/24 11:23:41;;;;;;;7.20;3.43;;;;;;;8.82;100.00;97920.75;5066234;28;20204;-86
2021/12/24 11:26:12;;;;;;;7.33;3.40;;;;;;;8.76;100.00;97935.25;5034012;28;20189;-86
2021/12/24 11:28:42;;;;;;;8.63;3.27;;;;;;;8.82;100.00;97916.31;5071034;28;20651;-86
2021/12/24 11:31:14;;;;;;;7.97;2.90;;;;;;;8.85;100.00;97921.34;5069058;28;20224;-86
2021/12/24 11:33:44;;;;;;;11.57;3.07;;;;;;;8.95;100.00;97910.06;5069764;28;20207;-86
2021/12/24 11:36:17;;;;;;;8.43;5.10;;;;;;;8.86;100.00;97914.25;5074881;28;20251;-85
2021/12/24 11:38:49;;;;;;;7.63;2.90;;;;;;;8.93;100.00;97904.91;5067066;28;20234;-87
2021/12/24 11:41:20;;;;;;;10.17;2.90;;;;;;;9.02;100.00;97901.56;5070541;28;20198;-86
2021/12/24 11:43:50;;;;;;;8.63;3.50;;;;;;;8.96;100.00;97909.09;5076380;28;20196;-87
2021/12/24 11:46:22;;;;;;;8.50;2.70;;;;;;;9.10;100.00;97906.25;5074211;28;20370;-86
2021/12/24 11:48:53;;;;;;;7.63;3.07;;;;;;;9.00;100.00;97902.66;5071286;28;20192;-87
2021/12/24 11:51:26;;;;;;;9.47;2.83;;;;;;;9.07;100.00;97911.75;5075250;28;20188;-86
2021/12/24 11:54:00;;;;;;;10.30;3.30;;;;;;;9.00;100.00;97895.56;5074455;28;20192;-87
2021/12/24 11:56:29;;;;;;;8.80;2.70;;;;;;;8.99;100.00;97908.88;5065895;28;20196;-85
2021/12/24 11:58:59;;;;;;;5.53;2.97;;;;;;;8.93;100.00;97907.56;5072781;28;20223;-86
2021/12/24 12:01:37;;;;;;;7.50;2.80;;;;;;;9.01;100.00;97912.25;5070119;28;20188;-85
2021/12/24 12:04:13;;;;;;;9.57;2.90;;;;;;;8.95;100.00;97910.91;5066167;28;20202;-85
2021/12/24 12:06:43;;;;;;;9.80;2.97;;;;;;;9.04;100.00;97904.91;5067920;28;20254;-85
2021/12/24 12:09:12;;;;;;;10.80;3.10;;;;;;;8.94;100.00;97911.03;5069462;28;20203;-86
2021/12/24 12:11:43;;;;;;;9.23;3.20;;;;;;;8.95;100.00;97908.28;5067875;28;20203;-86
2021/12/24 12:14:25;;;;;;;8.07;2.90;;;;;;;8.92;100.00;97912.97;5069589;28;20287;-85
2021/12/24 12:16:56;;;;;;;9.50;3.27;;;;;;;9.04;100.00;97898.78;5029229;28;20213;-86
2021/12/24 12:19:28;;;;;;;10.10;2.90;;;;;;;9.03;100.00;97899.75;5034924;28;20211;-85
2021/12/24 12:22:31;;;;;;;9.33;3.60;;;;;;;8.87;100.00;97908.84;5033015;28;20202;-85
2021/12/24 12:25:06;;;;;;;9.53;3.00;;;;;;;8.86;100.00;97891.34;5020759;28;20193;-86
2021/12/24 12:27:40;;;;;;;7.10;2.87;;;;;;;8.89;100.00;97899.03;5029710;28;20204;-86
2021/12/24 12:30:27;;;;;;;9.17;3.27;;;;;;;8.91;100.00;97898.06;5030337;28;20377;-87
2021/12/24 12:33:07;;;;;;;10.10;2.60;;;;;;;8.87;100.00;97894.81;5032647;28;20225;-86
2021/12/24 12:35:38;;;;;;;9.27;2.57;;;;;;;8.90;100.00;97894.59;5057678;28;20188;-87
2021/12/24 12:38:45;;;;;;;5.10;2.90;;;;;;;8.84;100.00;97889.78;5072759;28;20224;-85
2021/12/24 12:41:35;;;;;;;9.93;2.93;;;;;;;8.85;100.00;97876.47;5070373;28;20203;-85
2021/12/24 12:44:07;;;;;;;8.47;3.60;;;;;;;8.79;100.00;97855.00;5073546;28;20257;-86
2021/12/24 12:46:39;;;;;;;7.80;3.07;;;;;;;8.86;100.00;97862.28;5083713;28;20196;-86
2021/12/24 12:49:09;;;;;;;10.63;7.93;;;;;;;8.82;100.00;97866.16;5073711;28;20252;-86
2021/12/24 12:51:54;;;;;;;8.20;2.93;;;;;;;9.01;100.00;97870.00;5067775;28;20196;-86
2021/12/24 12:54:51;;;;;;;9.13;4.20;;;;;;;8.81;100.00;97866.28;5031817;28;20192;-87
2021/12/24 12:57:26;;;;;;;10.40;3.43;;;;;;;8.96;100.00;97862.41;5036307;28;20288;-85
2021/12/24 13:00:19;;;;;;;9.13;2.73;;;;;;;9.09;100.00;97863.16;5029853;28;20201;-86
2021/12/24 13:03:17;;;;;;;8.57;3.37;;;;;;;8.82;100.00;97858.22;5032447;28;20205;-85
2021/12/24 13:06:09;;;;;;;6.77;3.20;;;;;;;8.87;100.00;97860.50;5036287;28;20190;-86
2021/12/24 13:08:40;;;;;;;7.23;2.37;;;;;;;8.84;100.00;97873.94;5032065;28;20190;-87
2021/12/24 13:11:13;;;;;;;9.83;3.57;;;;;;;8.82;100.00;97878.50;5032000;28;20321;-85
2021/12/24 13:13:53;;;;;;;7.17;3.20;;;;;;;8.78;100.00;97871.75;5079844;28;20189;-85
2021/12/24 13:16:30;;;;;;;9.03;3.40;;;;;;;8.82;100.00;97871.44;5073816;28;20204;-86